createdAt,value
2023-01-12T00:04:20.036Z,100189.06
2023-01-12T00:09:21.895Z,100156.09
2023-01-12T00:14:23.292Z,100179.94
2023-01-12T00:19:24.957Z,100179.72
2023-01-12T00:24:29.064Z,100174.19
2023-01-12T00:29:31.171Z,100180.78
2023-01-12T00:34:32.614Z,100161.88
2023-01-12T00:39:40.349Z,100166.31
2023-01-12T00:45:00.997Z,100162.94
2023-01-12T00:50:02.376Z,100150.75
2023-01-12T00:55:04.060Z,100152.84
2023-01-12T01:00:06.131Z,100142.34
2023-01-12T01:05:07.876Z,100144.78
2023-01-12T01:10:11.047Z,100159.72
2023-01-12T01:15:12.813Z,100150.41
2023-01-12T01:20:14.230Z,100152.94
2023-01-12T01:25:15.671Z,100151.66
2023-01-12T01:30:17.126Z,100147.09
2023-01-12T01:35:18.525Z,100157.19
2023-01-12T01:40:19.971Z,100138.84
2023-01-12T01:45:21.484Z,100140.22
2023-01-12T01:50:28.682Z,100137.28
2023-01-12T01:55:37.075Z,100141.66
2023-01-12T02:00:40.292Z,100132.50
2023-01-12T02:05:45.413Z,100148.09
2023-01-12T02:10:46.804Z,100132.19
2023-01-12T02:16:23.181Z,100126.03
2023-01-12T02:21:24.552Z,100108.31
2023-01-12T02:26:55.284Z,100103.00
2023-01-12T02:32:16.116Z,100103.00
2023-01-12T02:37:38.621Z,100087.69
2023-01-12T02:43:03.249Z,100088.38
2023-01-12T02:48:16.729Z,100089.19
2023-01-12T02:53:29.591Z,100087.38
2023-01-12T02:58:35.712Z,100103.41
2023-01-12T03:03:39.696Z,100098.09
2023-01-12T03:08:41.146Z,100092.34
2023-01-12T03:13:52.085Z,100082.72
2023-01-12T03:18:58.773Z,100079.00
2023-01-12T03:24:05.107Z,100071.88
2023-01-12T03:29:15.630Z,100068.75
2023-01-12T03:34:17.115Z,100064.28
2023-01-12T03:40:01.905Z,100065.16
2023-01-12T03:45:48.375Z,100070.69
2023-01-12T03:51:00.484Z,100071.88
2023-01-12T03:56:06.635Z,100087.44
2023-01-12T04:01:08.505Z,100082.72
2023-01-12T04:06:10.255Z,100067.91
2023-01-12T04:11:30.403Z,100057.44
2023-01-12T04:16:31.761Z,100052.13
2023-01-12T04:21:52.304Z,100041.75
2023-01-12T04:26:53.722Z,100035.03
2023-01-12T04:31:55.125Z,100055.41
2023-01-12T04:36:56.578Z,100033.19
2023-01-12T04:41:58.007Z,100035.25
2023-01-12T04:46:59.543Z,100014.78
2023-01-12T04:52:00.933Z,100016.69
2023-01-12T04:57:02.300Z,100027.19
2023-01-12T05:02:03.824Z,100020.09
2023-01-12T05:07:05.247Z,100024.41
2023-01-12T05:12:06.614Z,100005.94
2023-01-12T05:17:08.003Z,99995.34
2023-01-12T05:22:09.387Z,99987.88
2023-01-12T05:27:10.694Z,99974.97
2023-01-12T05:32:12.071Z,99979.16
2023-01-12T05:37:13.439Z,99956.63
2023-01-12T05:42:33.550Z,99962.41
2023-01-12T05:47:35.004Z,99933.56
2023-01-12T05:52:36.557Z,99947.94
2023-01-12T05:57:37.858Z,99956.25
2023-01-12T06:02:39.286Z,99950.09
2023-01-12T06:07:40.673Z,99944.91
2023-01-12T06:13:00.622Z,99938.41
2023-01-12T06:18:02.014Z,99936.09
2023-01-12T06:23:04.961Z,99921.00
2023-01-12T06:28:06.439Z,99929.47
2023-01-12T06:33:07.843Z,99933.78
2023-01-12T06:38:09.151Z,99915.09
2023-01-12T06:43:10.744Z,99907.38
2023-01-12T06:48:12.270Z,99902.06
2023-01-12T06:53:13.735Z,99898.22
2023-01-12T06:58:15.129Z,99873.59
2023-01-12T07:03:18.073Z,99878.56
2023-01-12T07:08:19.450Z,99858.41
2023-01-12T07:13:21.859Z,99877.69
2023-01-12T07:18:23.311Z,99882.28
2023-01-12T07:23:24.943Z,99868.06
2023-01-12T07:28:26.547Z,99869.50
2023-01-12T07:33:28.058Z,99866.13
2023-01-12T07:38:31.254Z,99846.09
2023-01-12T07:43:33.568Z,99843.91
2023-01-12T07:48:35.789Z,99828.53
2023-01-12T07:53:37.172Z,99825.63
2023-01-12T07:58:38.659Z,99842.25
2023-01-12T08:03:40.269Z,99840.31
2023-01-12T08:08:41.636Z,99847.69
2023-01-12T08:13:43.067Z,99851.41
2023-01-12T08:18:53.671Z,99863.44
2023-01-12T08:23:58.874Z,99875.50
2023-01-12T08:29:13.170Z,99858.38
2023-01-12T08:34:15.249Z,99858.84
2023-01-12T08:39:16.646Z,99859.78
2023-01-12T08:44:18.866Z,99846.06
2023-01-12T08:49:27.058Z,99861.50
2023-01-12T08:54:28.468Z,99851.13
2023-01-12T08:59:31.928Z,99845.56
2023-01-12T09:04:33.250Z,99852.81
2023-01-12T09:09:35.028Z,99865.25
2023-01-12T09:14:38.566Z,99856.00
2023-01-12T09:19:40.018Z,99856.81
2023-01-12T09:24:41.777Z,99863.78
2023-01-12T09:29:43.301Z,99876.22
2023-01-12T09:34:44.918Z,99879.59
2023-01-12T09:39:46.517Z,99884.91
2023-01-12T09:45:09.969Z,99873.91
2023-01-12T09:50:24.890Z,99875.25
2023-01-12T09:55:29.706Z,99871.91
2023-01-12T10:00:32.305Z,99862.75
2023-01-12T10:05:48.867Z,99878.56
2023-01-12T10:11:24.641Z,99875.53
2023-01-12T10:16:49.951Z,99867.59
2023-01-12T10:21:53.372Z,99869.28
2023-01-12T10:27:02.408Z,99869.41
2023-01-12T10:32:03.905Z,99869.28
2023-01-12T10:37:10.437Z,99860.09
2023-01-12T10:42:41.225Z,99872.50
2023-01-12T10:47:44.449Z,99867.44
2023-01-12T10:52:46.608Z,99856.59
2023-01-12T10:57:49.365Z,99863.59
2023-01-12T11:02:51.390Z,99856.25
2023-01-12T11:07:52.809Z,99855.06
2023-01-12T11:13:03.526Z,99881.28
2023-01-12T11:18:24.135Z,99865.13
2023-01-12T11:23:41.645Z,99857.03
2023-01-12T11:28:48.203Z,99850.19
2023-01-12T11:33:57.810Z,99841.00
2023-01-12T11:39:05.283Z,99830.19
2023-01-12T11:44:23.725Z,99839.13
2023-01-12T11:49:46.937Z,99835.16
2023-01-12T11:54:48.250Z,99813.31
2023-01-12T12:00:19.396Z,99820.03
2023-01-12T12:05:43.152Z,99811.59
2023-01-12T12:11:07.272Z,99802.91
2023-01-12T12:16:39.778Z,99796.25
2023-01-12T12:21:50.709Z,99789.75
2023-01-12T12:27:19.805Z,99785.78
2023-01-12T12:32:44.228Z,99787.72
2023-01-12T12:37:51.965Z,99783.88
2023-01-12T12:43:15.138Z,99780.72
2023-01-12T12:48:42.604Z,99770.72
2023-01-12T12:53:47.338Z,99769.78
2023-01-12T12:58:49.553Z,99756.84
2023-01-12T13:04:02.270Z,99769.84
2023-01-12T13:09:12.455Z,99758.16
2023-01-12T13:14:21.138Z,99756.06
2023-01-12T13:19:41.092Z,99759.22
2023-01-12T13:24:42.769Z,99759.47
2023-01-12T13:29:47.016Z,99765.16
2023-01-12T13:34:49.395Z,99769.84
2023-01-12T13:40:00.180Z,99759.94
2023-01-12T13:45:02.533Z,99767.63
2023-01-12T13:50:04.461Z,99768.13
2023-01-12T13:55:22.477Z,99756.75
2023-01-12T14:00:24.488Z,99757.69
2023-01-12T14:06:05.182Z,99760.34
2023-01-12T14:11:21.709Z,99772.41
2023-01-12T14:16:42.480Z,99761.53
2023-01-12T14:22:04.854Z,99759.13
2023-01-12T14:27:23.219Z,99765.84
2023-01-12T14:32:25.479Z,99762.72
2023-01-12T14:37:31.345Z,99775.50
2023-01-12T14:42:51.509Z,99767.28
2023-01-12T14:47:52.873Z,99763.41
2023-01-12T14:52:54.333Z,99764.81
2023-01-12T14:58:04.952Z,99766.50
2023-01-12T15:03:21.273Z,99761.91
2023-01-12T15:08:30.604Z,99760.66
2023-01-12T15:13:34.029Z,99764.06
2023-01-12T15:18:54.323Z,99757.06
2023-01-12T15:24:14.925Z,99763.06
2023-01-12T15:29:16.276Z,99753.44
2023-01-12T15:34:17.877Z,99769.44
2023-01-12T15:39:19.295Z,99768.59
2023-01-12T15:44:21.855Z,99756.28
2023-01-12T15:49:23.211Z,99763.97
2023-01-12T15:54:27.509Z,99755.19
2023-01-12T15:59:28.816Z,99746.16
2023-01-12T16:04:45.797Z,99759.53
2023-01-12T16:09:47.953Z,99768.34
2023-01-12T16:14:49.679Z,99764.44
2023-01-12T16:19:51.203Z,99769.78
2023-01-12T16:24:54.940Z,99769.50
2023-01-12T16:29:56.666Z,99759.56
2023-01-12T16:34:58.107Z,99759.44
2023-01-12T16:40:00.286Z,99757.06
2023-01-12T16:45:01.744Z,99757.75
2023-01-12T16:50:03.317Z,99747.97
2023-01-12T16:55:05.045Z,99749.91
2023-01-12T17:00:07.644Z,99736.50
2023-01-12T17:05:10.197Z,99737.88
2023-01-12T17:10:12.064Z,99720.94
2023-01-12T17:15:13.574Z,99717.06
2023-01-12T17:20:15.615Z,99724.63
2023-01-12T17:25:17.543Z,99728.97
2023-01-12T17:30:20.746Z,99731.16
2023-01-12T17:35:22.402Z,99742.78
2023-01-12T17:40:23.717Z,99721.06
2023-01-12T17:45:25.062Z,99720.38
2023-01-12T17:50:26.461Z,99730.53
2023-01-12T17:55:27.924Z,99721.03
2023-01-12T18:00:29.653Z,99722.38
2023-01-12T18:05:31.347Z,99731.91
2023-01-12T18:10:32.882Z,99714.00
2023-01-12T18:15:34.315Z,99707.47
2023-01-12T18:20:35.736Z,99712.41
2023-01-12T18:25:37.404Z,99724.13
2023-01-12T18:30:38.835Z,99719.66
2023-01-12T18:35:40.208Z,99699.66
2023-01-12T18:40:41.626Z,99693.13
2023-01-12T18:45:42.966Z,99704.47
2023-01-12T18:51:02.866Z,99702.06
2023-01-12T18:56:05.851Z,99694.09
2023-01-12T19:01:18.116Z,99702.66
2023-01-12T19:06:27.595Z,99691.63
2023-01-12T19:11:29.033Z,99690.91
2023-01-12T19:16:48.975Z,99686.06
2023-01-12T19:22:08.854Z,99683.53
2023-01-12T19:27:31.417Z,99680.72
2023-01-12T19:32:32.870Z,99673.31
2023-01-12T19:37:34.522Z,99667.72
2023-01-12T19:42:54.467Z,99666.59
2023-01-12T19:47:55.885Z,99657.63
2023-01-12T19:52:57.373Z,99652.06
2023-01-12T19:57:59.650Z,99648.44
2023-01-12T20:03:01.133Z,99634.47
2023-01-12T20:08:02.635Z,99639.81
2023-01-12T20:13:05.227Z,99631.97
2023-01-12T20:18:08.682Z,99622.13
2023-01-12T20:23:12.462Z,99618.91
2023-01-12T20:28:14.427Z,99608.56
2023-01-12T20:33:15.976Z,99608.41
2023-01-12T20:38:19.046Z,99619.06
2023-01-12T20:43:20.597Z,99606.72
2023-01-12T20:48:21.944Z,99614.84
2023-01-12T20:53:26.791Z,99616.81
2023-01-12T20:58:28.155Z,99595.47
2023-01-12T21:03:29.606Z,99602.22
2023-01-12T21:08:30.966Z,99610.88
2023-01-12T21:13:32.459Z,99599.69
2023-01-12T21:18:35.034Z,99597.28
2023-01-12T21:23:36.525Z,99603.56
2023-01-12T21:28:40.310Z,99587.34
2023-01-12T21:33:41.767Z,99590.00
2023-01-12T21:38:43.695Z,99582.31
2023-01-12T21:43:49.561Z,99576.31
2023-01-12T21:48:50.984Z,99569.03
2023-01-12T21:53:52.385Z,99561.06
2023-01-12T21:58:53.731Z,99548.47
2023-01-12T22:03:56.817Z,99553.50
2023-01-12T22:08:58.795Z,99547.84
2023-01-12T22:14:00.815Z,99541.84
2023-01-12T22:19:03.697Z,99544.78
2023-01-12T22:24:05.500Z,99528.81
2023-01-12T22:29:06.897Z,99533.47
2023-01-12T22:34:09.095Z,99526.59
2023-01-12T22:39:13.843Z,99527.59
2023-01-12T22:44:15.358Z,99518.50
2023-01-12T22:49:17.099Z,99521.00
2023-01-12T22:54:19.088Z,99528.28
2023-01-12T22:59:20.829Z,99519.91
2023-01-12T23:04:22.303Z,99508.72
2023-01-12T23:09:24.171Z,99520.03
2023-01-12T23:14:25.671Z,99497.81
2023-01-12T23:19:27.030Z,99509.59
2023-01-12T23:24:28.494Z,99493.66
2023-01-12T23:29:30.338Z,99495.03
2023-01-12T23:34:31.674Z,99498.41
2023-01-12T23:39:33.112Z,99501.50
2023-01-12T23:44:34.494Z,99488.75
2023-01-12T23:49:35.799Z,99489.44
2023-01-12T23:54:38.714Z,99475.75
2023-01-12T23:59:40.285Z,99482.19
